16°C Temp
15°C Dewpoint
% Humidity
Temperature
13 KM/H
8 MPH
7 KTS
240°
West South
West

Wind Speed
Partly Cloudy
Conditions
Pressure 1011.92 (hPa) - 29.88 (in)
Visibility 6.2 (mi) - 10.0 (km)

Current Conditions
EHLW
Location 6km (3.2mi)
Metar :EHLW 210025Z AUTO 24007KT 9999 FEW058 16/15 Q1012 BLU
Sun 21st July 02:25 am

Airport
  Metar Aviation API Data Provided by https://www.checkwx.com/ PHP scripts by weather34.com ©2019